Time;durP1;ratioP1;P1;durP2;ratioP2;P2;SDS_P1;SDS_P2;PMS_P1;PMS_P2;Temp;Humidity;BMP_temperature;BMP_pressure;BME280_temperature;BME280_humidity;BME280_pressure;Samples;Min_cycle;Max_cycle;Signal;HPM_P1;HPM_P2
2021/07/04 00:00:43;;;;;;;15.68;7.20;;;589.20;1740.80;;;;;;4984384;28;20128;-79
2021/07/04 00:03:09;;;;;;;13.20;7.47;;;589.00;1740.80;;;;;;4969547;28;20046;-83
2021/07/04 00:05:42;;;;;;;11.73;6.80;;;588.90;1766.40;;;;;;4966654;28;20029;-79
2021/07/04 00:08:10;;;;;;;10.50;7.13;;;588.90;1766.40;;;;;;4973518;28;20459;-79
2021/07/04 00:10:43;;;;;;;9.88;6.38;;;588.90;1766.40;;;;;;4973528;28;20038;-79
2021/07/04 00:13:09;;;;;;;18.35;7.57;;;588.90;1766.40;;;;;;4967082;28;20041;-78
2021/07/04 00:15:41;;;;;;;12.00;6.38;;;588.90;1766.40;;;;;;4988394;28;20030;-83
2021/07/04 00:18:13;;;;;;;10.15;6.82;;;588.90;1766.40;;;;;;4965254;28;20035;-86
2021/07/04 00:20:40;;;;;;;10.60;6.00;;;588.90;1766.40;;;;;;4970985;28;20062;-83
2021/07/04 00:23:06;;;;;;;11.02;6.45;;;588.80;1792.00;;;;;;4984651;28;20384;-81
2021/07/04 00:25:33;;;;;;;11.93;6.68;;;564.10;1792.00;;;;;;4967072;28;20034;-85
2021/07/04 00:27:58;;;;;;;16.58;6.95;;;588.80;1792.00;;;;;;4984087;28;20522;-81
2021/07/04 00:30:25;;;;;;;13.27;7.40;;;588.80;1792.00;;;;;;4966773;28;20030;-92
2021/07/04 00:32:51;;;;;;;15.40;8.02;;;564.00;1817.60;;;;;;4979905;28;20122;-92
2021/07/04 00:35:19;;;;;;;11.65;6.63;;;564.00;1817.60;;;;;;4970646;28;20053;-90
2021/07/04 00:37:46;;;;;;;21.48;7.70;;;563.80;1843.20;;;;;;4983701;28;20094;-88
2021/07/04 00:40:13;;;;;;;14.63;6.97;;;563.70;1843.20;;;;;;4966326;28;20031;-79
2021/07/04 00:42:39;;;;;;;10.38;6.60;;;563.80;1843.20;;;;;;4969862;28;20053;-82
2021/07/04 00:45:09;;;;;;;11.05;6.90;;;563.80;1843.20;;;;;;4968650;28;20459;-87
2021/07/04 00:47:35;;;;;;;14.90;7.25;;;563.90;1817.60;;;;;;4983062;28;20065;-85
2021/07/04 00:50:01;;;;;;;13.27;6.35;;;563.80;1817.60;;;;;;4968304;28;20054;-91
2021/07/04 00:52:27;;;;;;;12.25;7.55;;;563.80;1843.20;;;;;;4977272;28;20034;-81
2021/07/04 00:54:53;;;;;;;13.20;6.57;;;563.80;1817.60;;;;;;4994423;28;20815;-83
2021/07/04 00:57:18;;;;;;;17.20;7.53;;;563.70;1843.20;;;;;;4977095;28;20416;-85
2021/07/04 00:59:44;;;;;;;12.73;6.15;;;563.80;1843.20;;;;;;4994324;28;20488;-85
2021/07/04 01:02:10;;;;;;;14.65;7.93;;;563.90;1817.60;;;;;;4976471;28;20078;-85
2021/07/04 01:04:35;;;;;;;10.93;6.65;;;563.90;1817.60;;;;;;4992621;28;20031;-89
2021/07/04 01:07:02;;;;;;;11.75;6.75;;;563.90;1817.60;;;;;;4976783;28;20064;-90
2021/07/04 01:09:28;;;;;;;14.98;7.75;;;563.80;1843.20;;;;;;4976427;28;20534;-78
2021/07/04 01:11:54;;;;;;;16.25;8.07;;;563.60;1868.80;;;;;;4976633;28;20042;-80
2021/07/04 01:14:19;;;;;;;13.32;7.38;;;563.40;1894.40;;;;;;4993522;28;20053;-77
2021/07/04 01:16:45;;;;;;;14.65;7.53;;;563.20;1920.00;;;;;;4994080;28;20378;-81
2021/07/04 01:19:15;;;;;;;11.82;7.60;;;563.20;1894.40;;;;;;4993858;28;20530;-78
2021/07/04 01:21:43;;;;;;;13.07;7.25;;;563.20;1920.00;;;;;;4975823;28;20038;-78
2021/07/04 01:24:10;;;;;;;18.35;7.70;;;563.20;1894.40;;;;;;4989311;28;20033;-77
2021/07/04 01:26:36;;;;;;;13.10;7.68;;;563.20;1894.40;;;;;;4974174;28;20129;-77
2021/07/04 01:29:03;;;;;;;13.38;7.65;;;538.50;1894.40;;;;;;4979407;28;20644;-78
2021/07/04 01:31:30;;;;;;;13.10;7.75;;;563.20;1894.40;;;;;;4974075;28;20065;-79
2021/07/04 01:33:56;;;;;;;14.15;7.50;;;563.20;1894.40;;;;;;4986040;28;20136;-79
2021/07/04 01:36:22;;;;;;;14.75;6.93;;;563.40;1894.40;;;;;;4993314;28;20504;-78
2021/07/04 01:38:47;;;;;;;12.65;6.68;;;563.30;1894.40;;;;;;4993422;28;20053;-78
2021/07/04 01:41:14;;;;;;;14.50;7.00;;;563.20;1894.40;;;;;;4993583;28;20374;-78
2021/07/04 01:43:39;;;;;;;10.60;6.88;;;563.20;1894.40;;;;;;4993307;28;20043;-89
2021/07/04 01:46:05;;;;;;;13.60;7.03;;;563.20;1894.40;;;;;;4976249;28;20077;-77
2021/07/04 01:48:31;;;;;;;12.10;7.63;;;563.30;1894.40;;;;;;4993098;28;20042;-88
2021/07/04 01:50:57;;;;;;;13.93;7.85;;;563.30;1894.40;;;;;;4993256;28;20032;-79
2021/07/04 01:53:23;;;;;;;12.45;7.82;;;563.30;1894.40;;;;;;4993607;28;20476;-90
2021/07/04 01:55:49;;;;;;;19.38;7.35;;;538.50;1868.80;;;;;;4993254;28;20049;-82
2021/07/04 01:58:16;;;;;;;10.45;7.68;;;538.50;1894.40;;;;;;4992833;28;20053;-78
2021/07/04 02:00:44;;;;;;;13.98;8.50;;;538.50;1894.40;;;;;;4993220;28;20069;-88
2021/07/04 02:03:11;;;;;;;12.30;8.35;;;538.50;1894.40;;;;;;4975599;28;20046;-78
2021/07/04 02:05:38;;;;;;;10.32;6.65;;;538.50;1894.40;;;;;;4993061;28;20096;-78
2021/07/04 02:08:05;;;;;;;13.50;8.20;;;563.30;1920.00;;;;;;4993127;28;20037;-79
2021/07/04 02:10:37;;;;;;;14.15;8.02;;;538.50;1894.40;;;;;;4975842;28;20038;-82
2021/07/04 02:13:04;;;;;;;10.80;6.72;;;538.50;1868.80;;;;;;4993193;28;20030;-79
2021/07/04 02:15:33;;;;;;;10.98;7.15;;;538.50;1868.80;;;;;;4993191;28;20036;-84
2021/07/04 02:18:18;;;;;;;9.80;7.35;;;538.50;1894.40;;;;;;4976022;28;20428;-77
2021/07/04 02:20:51;;;;;;;14.63;7.32;;;538.40;1894.40;;;;;;4975278;28;20121;-78
2021/07/04 02:23:21;;;;;;;10.88;7.82;;;538.40;1894.40;;;;;;4993084;28;20046;-90
2021/07/04 02:25:48;;;;;;;15.68;7.50;;;538.40;1894.40;;;;;;4975421;28;20039;-77
2021/07/04 02:28:16;;;;;;;13.73;8.23;;;538.30;1920.00;;;;;;4993720;28;20092;-79
2021/07/04 02:30:43;;;;;;;11.93;6.93;;;538.20;1920.00;;;;;;4993061;28;20491;-76
2021/07/04 02:33:11;;;;;;;20.23;7.65;;;538.10;1920.00;;;;;;4987019;28;20084;-78
2021/07/04 02:35:40;;;;;;;12.43;6.90;;;538.20;1920.00;;;;;;4972961;28;20089;-80
2021/07/04 02:38:07;;;;;;;21.90;8.25;;;538.20;1920.00;;;;;;4973478;28;20485;-90
2021/07/04 02:40:33;;;;;;;12.05;7.13;;;538.10;1920.00;;;;;;4955730;28;20037;-79
2021/07/04 02:43:00;;;;;;;13.25;7.72;;;538.00;1920.00;;;;;;4973751;28;20047;-79
2021/07/04 02:45:26;;;;;;;11.75;7.75;;;538.00;1945.60;;;;;;4955769;28;20030;-81
2021/07/04 02:47:52;;;;;;;10.85;7.88;;;538.00;1945.60;;;;;;4956111;28;20041;-81
2021/07/04 02:50:22;;;;;;;13.25;7.88;;;537.90;1945.60;;;;;;4972630;28;20384;-80
2021/07/04 02:52:49;;;;;;;17.23;8.68;;;537.70;1971.20;;;;;;4955815;28;20407;-78
2021/07/04 02:55:15;;;;;;;13.30;7.90;;;537.60;1996.80;;;;;;4955695;28;20039;-78
2021/07/04 02:57:41;;;;;;;11.32;7.55;;;512.90;1971.20;;;;;;4955691;28;20055;-89
2021/07/04 03:00:09;;;;;;;12.10;8.13;;;512.90;1996.80;;;;;;4973064;28;20035;-78
2021/07/04 03:02:35;;;;;;;16.58;7.93;;;512.80;1996.80;;;;;;4974468;28;20042;-76
2021/07/04 03:05:01;;;;;;;17.55;8.27;;;512.60;2022.40;;;;;;4977027;28;20062;-78
2021/07/04 03:07:26;;;;;;;16.75;8.75;;;512.60;2022.40;;;;;;4976831;28;20516;-77
2021/07/04 03:09:52;;;;;;;13.05;8.38;;;512.40;2022.40;;;;;;4976985;28;20540;-77
2021/07/04 03:12:18;;;;;;;15.07;8.68;;;512.40;2022.40;;;;;;4976467;28;20508;-81
2021/07/04 03:14:44;;;;;;;11.30;7.85;;;512.20;2048.00;;;;;;4959353;28;20035;-77
2021/07/04 03:17:10;;;;;;;17.10;9.35;;;512.30;2022.40;;;;;;4976513;28;20038;-76
2021/07/04 03:19:35;;;;;;;17.35;8.70;;;512.20;2022.40;;;;;;4976343;28;20035;-77
2021/07/04 03:22:01;;;;;;;15.75;9.07;;;512.20;2022.40;;;;;;4976350;28;20397;-76
2021/07/04 03:24:27;;;;;;;13.38;8.48;;;512.00;2022.40;;;;;;4976398;28;20038;-81
2021/07/04 03:26:53;;;;;;;11.93;8.25;;;512.00;2048.00;;;;;;4976398;28;20038;-76
2021/07/04 03:29:19;;;;;;;15.63;8.80;;;512.00;2048.00;;;;;;4976371;28;20620;-75
2021/07/04 03:31:45;;;;;;;17.25;9.02;;;512.00;2048.00;;;;;;4976488;28;20531;-79
2021/07/04 03:34:11;;;;;;;13.70;8.38;;;512.00;2048.00;;;;;;4976311;28;20043;-76
2021/07/04 03:36:36;;;;;;;13.18;7.45;;;512.00;2048.00;;;;;;4976102;28;20042;-76
2021/07/04 03:39:04;;;;;;;12.93;8.23;;;512.00;2048.00;;;;;;4976174;28;20042;-75
2021/07/04 03:41:30;;;;;;;11.77;9.45;;;512.00;2048.00;;;;;;4976280;28;20041;-76
2021/07/04 03:43:59;;;;;;;11.07;8.45;;;512.00;2048.00;;;;;;4976313;28;20039;-76
2021/07/04 03:46:26;;;;;;;11.77;8.70;;;487.30;2048.00;;;;;;4975588;28;20117;-76
2021/07/04 03:48:52;;;;;;;28.50;9.20;;;512.00;2048.00;;;;;;4976175;28;20033;-85
2021/07/04 03:51:18;;;;;;;13.55;8.65;;;512.00;2048.00;;;;;;4975539;28;20028;-88
2021/07/04 03:53:44;;;;;;;17.45;10.27;;;512.10;2048.00;;;;;;4976453;28;20507;-87
2021/07/04 03:56:09;;;;;;;16.23;9.65;;;512.00;2048.00;;;;;;4975254;28;20042;-75
2021/07/04 03:58:35;;;;;;;15.82;9.73;;;512.00;2048.00;;;;;;4975950;28;20043;-75
2021/07/04 04:01:02;;;;;;;17.98;10.98;;;512.00;2048.00;;;;;;4974264;28;20035;-76
2021/07/04 04:03:28;;;;;;;19.27;11.18;;;512.10;2048.00;;;;;;4958668;28;20038;-88
2021/07/04 04:05:56;;;;;;;22.70;11.75;;;512.20;2022.40;;;;;;4975420;28;20038;-75
2021/07/04 04:08:22;;;;;;;16.63;11.43;;;512.20;2048.00;;;;;;4975828;28;20065;-77
2021/07/04 04:10:48;;;;;;;20.90;11.38;;;512.30;2022.40;;;;;;4975667;28;20026;-81
2021/07/04 04:13:13;;;;;;;17.98;11.10;;;512.30;2022.40;;;;;;4957365;28;20062;-77
2021/07/04 04:15:39;;;;;;;22.25;11.55;;;512.40;2022.40;;;;;;4957908;28;20058;-78
2021/07/04 04:18:06;;;;;;;19.60;11.48;;;512.50;2022.40;;;;;;4958192;28;20035;-77
2021/07/04 04:20:32;;;;;;;19.90;11.40;;;512.40;2022.40;;;;;;4975437;28;20035;-85
2021/07/04 04:22:58;;;;;;;21.38;11.30;;;512.60;2022.40;;;;;;4975352;28;20079;-78
2021/07/04 04:25:24;;;;;;;19.00;12.88;;;512.70;2022.40;;;;;;4975355;28;20141;-78
2021/07/04 04:27:49;;;;;;;25.08;12.15;;;512.90;1996.80;;;;;;4975294;28;20074;-77
2021/07/04 04:30:16;;;;;;;17.75;12.75;;;512.90;1996.80;;;;;;4975264;28;20031;-91
2021/07/04 04:32:41;;;;;;;21.05;12.80;;;537.60;2022.40;;;;;;4977459;28;20031;-84
2021/07/04 04:35:09;;;;;;;20.90;12.57;;;537.70;2022.40;;;;;;4994848;28;20503;-77
2021/07/04 04:37:35;;;;;;;22.20;12.63;;;537.70;2022.40;;;;;;4977159;28;20039;-78
2021/07/04 04:40:02;;;;;;;20.55;12.48;;;537.80;2022.40;;;;;;4977052;28;20489;-77
2021/07/04 04:42:28;;;;;;;20.17;11.75;;;537.80;2022.40;;;;;;4977177;28;20046;-83
2021/07/04 04:44:53;;;;;;;24.98;11.70;;;538.00;2022.40;;;;;;4976802;28;20420;-77
2021/07/04 04:47:19;;;;;;;25.88;11.00;;;538.00;1996.80;;;;;;4994470;28;20089;-77
2021/07/04 04:49:45;;;;;;;21.33;11.57;;;538.00;1996.80;;;;;;4976757;28;20031;-77
2021/07/04 04:52:11;;;;;;;17.65;10.48;;;538.20;1971.20;;;;;;4992892;28;20514;-82
2021/07/04 04:54:36;;;;;;;17.27;10.93;;;538.10;1945.60;;;;;;4977843;28;20061;-77
2021/07/04 04:57:06;;;;;;;17.65;10.75;;;538.00;1945.60;;;;;;4970352;28;20050;-91
2021/07/04 04:59:36;;;;;;;16.88;9.40;;;538.00;1945.60;;;;;;4975027;28;20035;-91
2021/07/04 05:02:03;;;;;;;16.70;9.77;;;538.10;1945.60;;;;;;4975111;28;20563;-89
2021/07/04 05:04:29;;;;;;;23.75;9.98;;;538.20;1945.60;;;;;;4974922;28;20031;-90
2021/07/04 05:06:55;;;;;;;18.73;10.00;;;538.30;1920.00;;;;;;4957289;28;20097;-79
2021/07/04 05:09:21;;;;;;;19.45;10.65;;;538.50;1894.40;;;;;;4975134;28;20058;-92
2021/07/04 05:11:49;;;;;;;16.40;9.65;;;563.30;1920.00;;;;;;4974373;28;20062;-78
2021/07/04 05:14:18;;;;;;;18.80;9.30;;;563.30;1920.00;;;;;;4974660;28;20077;-77
2021/07/04 05:16:44;;;;;;;14.05;9.18;;;563.40;1920.00;;;;;;4961181;28;20121;-77
2021/07/04 05:19:11;;;;;;;15.13;8.65;;;563.50;1894.40;;;;;;4993836;28;20113;-76
2021/07/04 05:21:37;;;;;;;16.23;8.77;;;563.60;1894.40;;;;;;4975769;28;20503;-77
2021/07/04 05:24:05;;;;;;;15.73;9.38;;;563.70;1894.40;;;;;;4993716;28;20113;-75
2021/07/04 05:26:31;;;;;;;14.98;8.27;;;563.70;1868.80;;;;;;4993033;28;20026;-76
2021/07/04 05:28:58;;;;;;;21.10;9.23;;;563.50;1868.80;;;;;;4993273;28;20489;-74
2021/07/04 05:31:24;;;;;;;42.17;28.38;;;564.10;1894.40;;;;;;4975522;28;20378;-81
2021/07/04 05:33:50;;;;;;;21.75;14.27;;;564.10;1894.40;;;;;;4981422;28;20089;-76
2021/07/04 05:36:16;;;;;;;17.13;11.27;;;588.90;1894.40;;;;;;4974211;28;20023;-75
2021/07/04 05:38:43;;;;;;;19.40;14.55;;;588.80;1868.80;;;;;;4973660;28;20035;-75
2021/07/04 05:41:14;;;;;;;17.20;12.50;;;588.80;1843.20;;;;;;4973776;28;20035;-76
2021/07/04 05:43:42;;;;;;;12.48;8.15;;;589.00;1843.20;;;;;;4973581;28;20053;-76
2021/07/04 05:46:09;;;;;;;17.15;11.93;;;589.00;1843.20;;;;;;4973552;28;20043;-83
2021/07/04 05:48:39;;;;;;;19.52;14.48;;;589.10;1843.20;;;;;;4973993;28;20041;-77
2021/07/04 05:51:05;;;;;;;21.55;14.52;;;589.20;1817.60;;;;;;4973278;28;20031;-75
2021/07/04 05:53:31;;;;;;;11.02;7.45;;;589.20;1817.60;;;;;;4973899;28;20448;-76
2021/07/04 05:55:57;;;;;;;11.88;7.50;;;589.40;1817.60;;;;;;4973158;28;20034;-81
2021/07/04 05:58:23;;;;;;;10.82;6.65;;;589.40;1792.00;;;;;;4973740;28;20043;-81
2021/07/04 06:00:49;;;;;;;11.60;6.97;;;589.40;1792.00;;;;;;4973354;28;20110;-76
2021/07/04 06:03:15;;;;;;;15.38;9.60;;;589.50;1792.00;;;;;;4956208;28;20046;-83
2021/07/04 06:05:41;;;;;;;13.20;9.60;;;589.50;1766.40;;;;;;4955855;28;20489;-75
2021/07/04 06:08:07;;;;;;;16.85;9.60;;;589.60;1766.40;;;;;;4973171;28;20031;-76
2021/07/04 06:10:33;;;;;;;9.48;6.85;;;589.70;1740.80;;;;;;4955954;28;20085;-76
2021/07/04 06:12:59;;;;;;;11.18;6.68;;;614.40;1715.20;;;;;;4973243;28;20519;-80
2021/07/04 06:15:24;;;;;;;14.18;6.80;;;614.50;1715.20;;;;;;4973240;28;20066;-76
2021/07/04 06:17:50;;;;;;;10.93;6.38;;;614.60;1715.20;;;;;;4973069;28;20062;-74
2021/07/04 06:20:18;;;;;;;14.30;7.05;;;614.70;1689.60;;;;;;4973133;28;20481;-74
2021/07/04 06:22:45;;;;;;;23.02;6.97;;;614.80;1664.00;;;;;;4972404;28;20429;-74
2021/07/04 06:25:12;;;;;;;12.15;5.93;;;614.90;1664.00;;;;;;4972906;28;20094;-73
2021/07/04 06:27:39;;;;;;;12.13;8.35;;;614.90;1638.40;;;;;;4972772;28;20527;-77
2021/07/04 06:30:08;;;;;;;13.20;7.35;;;614.90;1612.80;;;;;;4955966;28;20094;-76
2021/07/04 06:32:34;;;;;;;8.07;6.03;;;615.20;1612.80;;;;;;4956008;28;20038;-77
2021/07/04 06:35:00;;;;;;;12.27;5.43;;;615.20;1612.80;;;;;;4972857;28;20027;-77
2021/07/04 06:37:26;;;;;;;9.15;5.68;;;615.30;1612.80;;;;;;4972130;28;20045;-78
2021/07/04 06:39:51;;;;;;;9.10;5.68;;;640.00;1587.20;;;;;;4973244;28;20039;-78
2021/07/04 06:42:17;;;;;;;12.02;4.75;;;640.20;1587.20;;;;;;4971999;28;20047;-75
2021/07/04 06:44:43;;;;;;;9.00;5.72;;;640.20;1561.60;;;;;;4973181;28;20488;-80
2021/07/04 06:47:09;;;;;;;8.95;5.15;;;640.40;1561.60;;;;;;4981079;28;20058;-78
2021/07/04 06:49:35;;;;;;;14.85;5.03;;;640.50;1536.00;;;;;;4984064;28;20035;-77
2021/07/04 06:52:00;;;;;;;12.75;5.35;;;640.50;1484.80;;;;;;4982058;28;20039;-78
2021/07/04 06:54:27;;;;;;;10.85;4.85;;;640.70;1433.60;;;;;;4981373;28;20057;-77
2021/07/04 06:56:52;;;;;;;7.65;4.72;;;640.90;1433.60;;;;;;4980907;28;20150;-76
2021/07/04 06:59:18;;;;;;;7.22;4.55;;;665.60;1433.60;;;;;;4975916;28;20118;-77
2021/07/04 07:01:44;;;;;;;11.20;4.63;;;665.70;1433.60;;;;;;4955639;28;20049;-78
2021/07/04 07:04:11;;;;;;;5.15;3.97;;;665.80;1433.60;;;;;;4955561;28;20101;-89
2021/07/04 07:06:39;;;;;;;7.47;5.22;;;665.90;1356.80;;;;;;4972754;28;20478;-88
2021/07/04 07:09:05;;;;;;;6.40;5.22;;;666.00;1382.40;;;;;;4973119;28;20031;-77
2021/07/04 07:11:31;;;;;;;9.45;4.22;;;666.20;1280.00;;;;;;4987444;28;20476;-80
2021/07/04 07:13:56;;;;;;;10.82;4.55;;;666.30;1280.00;;;;;;4962213;28;20062;-89
2021/07/04 07:16:22;;;;;;;7.80;4.78;;;666.40;1280.00;;;;;;4972747;28;20035;-79
2021/07/04 07:18:48;;;;;;;8.57;4.90;;;666.50;1280.00;;;;;;4972892;28;20038;-79
2021/07/04 07:21:13;;;;;;;7.32;5.10;;;691.20;1280.00;;;;;;4954323;28;20038;-80
2021/07/04 07:23:39;;;;;;;5.80;4.75;;;691.30;1305.60;;;;;;4955203;28;20073;-79
2021/07/04 07:26:05;;;;;;;7.65;4.47;;;691.40;1280.00;;;;;;4972657;28;20031;-88
2021/07/04 07:28:31;;;;;;;8.82;3.92;;;691.50;1254.40;;;;;;4972814;28;20477;-80
2021/07/04 07:30:56;;;;;;;15.43;4.97;;;691.60;1228.80;;;;;;4972760;28;20035;-81
2021/07/04 07:33:22;;;;;;;5.43;3.80;;;691.70;1203.20;;;;;;4963250;28;20026;-82
2021/07/04 07:35:51;;;;;;;7.72;4.50;;;691.70;1228.80;;;;;;4974239;28;20037;-79
2021/07/04 07:38:17;;;;;;;8.75;4.75;;;691.80;1203.20;;;;;;4990501;28;20148;-84
2021/07/04 07:40:43;;;;;;;6.07;5.13;;;691.80;1177.60;;;;;;4991990;28;20050;-77
2021/07/04 07:43:09;;;;;;;4.55;3.95;;;691.80;1203.20;;;;;;4991615;28;20050;-75
2021/07/04 07:45:34;;;;;;;6.63;4.35;;;691.90;1203.20;;;;;;4991915;28;20030;-78
2021/07/04 07:48:00;;;;;;;5.43;4.03;;;691.90;1177.60;;;;;;4992583;28;20522;-76
2021/07/04 07:50:27;;;;;;;6.07;4.07;;;691.90;1228.80;;;;;;4994948;28;20034;-77
2021/07/04 07:52:53;;;;;;;6.40;4.47;;;691.80;1228.80;;;;;;4994237;28;20034;-80
2021/07/04 07:55:18;;;;;;;8.43;4.97;;;691.80;1228.80;;;;;;4994812;28;20038;-76
2021/07/04 07:57:44;;;;;;;6.30;5.00;;;691.90;1203.20;;;;;;4995048;28;20054;-77
2021/07/04 08:00:13;;;;;;;7.68;4.55;;;692.00;1177.60;;;;;;4994906;28;20030;-76
2021/07/04 08:02:38;;;;;;;9.75;4.72;;;692.10;1203.20;;;;;;4995056;28;20105;-75
2021/07/04 08:05:05;;;;;;;7.13;3.75;;;716.90;1228.80;;;;;;4995158;28;20395;-78
2021/07/04 08:07:31;;;;;;;5.88;4.50;;;717.00;1203.20;;;;;;4993796;28;20069;-83
2021/07/04 08:09:57;;;;;;;5.82;4.35;;;717.20;1203.20;;;;;;4994757;28;20510;-77
2021/07/04 08:12:23;;;;;;;6.95;4.18;;;717.40;1203.20;;;;;;4994888;28;20065;-78
2021/07/04 08:14:48;;;;;;;8.07;4.75;;;717.50;1177.60;;;;;;4994904;28;20036;-79
2021/07/04 08:17:15;;;;;;;7.63;4.93;;;717.70;1177.60;;;;;;4985435;28;20113;-76
2021/07/04 08:19:41;;;;;;;10.98;5.50;;;717.60;1152.00;;;;;;4985141;28;20023;-77
2021/07/04 08:22:07;;;;;;;11.20;5.10;;;717.50;1152.00;;;;;;4982865;28;20062;-76
2021/07/04 08:24:32;;;;;;;5.47;4.20;;;717.50;1177.60;;;;;;4985331;28;20030;-75
2021/07/04 08:26:58;;;;;;;10.70;4.78;;;717.40;1177.60;;;;;;4986977;28;20094;-75
2021/07/04 08:29:24;;;;;;;5.43;4.45;;;717.50;1177.60;;;;;;4981325;28;20035;-74
2021/07/04 08:31:49;;;;;;;8.93;4.88;;;717.50;1126.40;;;;;;4982928;28;20365;-74
2021/07/04 08:34:15;;;;;;;8.77;4.68;;;717.50;1126.40;;;;;;4973062;28;20377;-73
2021/07/04 08:36:41;;;;;;;7.45;4.75;;;717.50;1126.40;;;;;;4985637;28;20053;-77
2021/07/04 08:39:08;;;;;;;9.13;4.28;;;717.50;1152.00;;;;;;4982764;28;20630;-74
2021/07/04 08:41:34;;;;;;;5.85;4.45;;;742.40;1126.40;;;;;;4970067;28;20053;-76
2021/07/04 08:44:07;;;;;;;4.53;4.00;;;717.70;1100.80;;;;;;4982307;28;20066;-76
2021/07/04 08:46:41;;;;;;;14.88;5.22;;;742.40;1152.00;;;;;;4967681;28;20123;-74
2021/07/04 08:49:08;;;;;;;5.30;4.53;;;742.50;1100.80;;;;;;4983661;28;20038;-84
2021/07/04 08:51:34;;;;;;;9.23;4.35;;;742.70;1126.40;;;;;;4984672;28;20027;-79
2021/07/04 08:54:00;;;;;;;7.70;5.53;;;742.60;1126.40;;;;;;4982615;28;20042;-80
2021/07/04 08:56:25;;;;;;;6.80;4.57;;;742.70;1100.80;;;;;;4965521;28;20046;-75
2021/07/04 08:58:51;;;;;;;6.18;4.00;;;742.50;1100.80;;;;;;4985353;28;20093;-80
2021/07/04 09:01:22;;;;;;;7.47;4.32;;;742.50;1126.40;;;;;;4966587;28;20492;-77
2021/07/04 09:03:53;;;;;;;8.48;4.45;;;742.60;1075.20;;;;;;4985023;28;20565;-79
2021/07/04 09:06:37;;;;;;;5.03;3.95;;;742.70;1075.20;;;;;;4982890;28;20030;-78
2021/07/04 09:09:19;;;;;;;6.82;4.32;;;742.90;1075.20;;;;;;4979242;28;20039;-77
2021/07/04 09:11:56;;;;;;;6.07;4.90;;;742.90;1075.20;;;;;;4967075;28;20109;-78
2021/07/04 09:14:26;;;;;;;9.85;4.20;;;743.00;1049.60;;;;;;4984150;28;20030;-78
2021/07/04 09:16:52;;;;;;;6.95;4.53;;;743.10;1024.00;;;;;;4967727;28;20384;-78
2021/07/04 09:19:19;;;;;;;11.10;4.70;;;743.10;1024.00;;;;;;4984752;28;20030;-85
2021/07/04 09:22:14;;;;;;;8.63;5.32;;;743.30;1049.60;;;;;;4981658;28;20031;-81
2021/07/04 09:24:42;;;;;;;6.20;4.72;;;768.10;1024.00;;;;;;4982311;28;20034;-77
2021/07/04 09:27:12;;;;;;;10.25;4.68;;;768.00;1024.00;;;;;;4966151;28;20034;-75
2021/07/04 09:29:40;;;;;;;6.93;4.32;;;768.10;1024.00;;;;;;4983114;28;20035;-76
2021/07/04 09:32:15;;;;;;;10.13;4.50;;;768.20;998.40;;;;;;4981365;28;20027;-77
2021/07/04 09:34:48;;;;;;;4.33;3.73;;;768.20;1024.00;;;;;;4982142;28;20122;-77
2021/07/04 09:37:36;;;;;;;8.38;4.35;;;768.10;998.40;;;;;;4967134;28;20388;-76
2021/07/04 09:40:21;;;;;;;6.15;4.20;;;768.20;1024.00;;;;;;4975767;28;20029;-75
2021/07/04 09:43:04;;;;;;;6.00;4.35;;;768.00;1049.60;;;;;;4977277;28;20053;-77
2021/07/04 09:45:55;;;;;;;7.38;3.97;;;743.10;1024.00;;;;;;4982007;28;20496;-78
2021/07/04 09:48:30;;;;;;;8.68;4.35;;;743.10;1024.00;;;;;;4964492;28;20130;-77
2021/07/04 09:51:01;;;;;;;5.53;4.65;;;743.10;1024.00;;;;;;4962329;28;20031;-80
2021/07/04 09:53:34;;;;;;;8.63;4.15;;;743.10;1024.00;;;;;;4982563;28;20096;-84
2021/07/04 09:56:14;;;;;;;7.75;4.28;;;743.30;1049.60;;;;;;4978886;28;20508;-79
2021/07/04 09:58:42;;;;;;;5.65;3.92;;;768.00;1024.00;;;;;;4979361;28;20039;-78
2021/07/04 10:01:09;;;;;;;4.50;3.95;;;768.10;972.80;;;;;;4964338;28;20383;-76
2021/07/04 10:03:42;;;;;;;5.30;4.03;;;768.20;947.20;;;;;;4982523;28;20049;-75
2021/07/04 10:06:10;;;;;;;5.47;4.55;;;768.40;1024.00;;;;;;4981785;28;20078;-76
2021/07/04 10:08:38;;;;;;;7.65;5.43;;;768.40;998.40;;;;;;4981471;28;20034;-77
2021/07/04 10:11:12;;;;;;;8.40;4.53;;;768.60;1024.00;;;;;;4983259;28;20187;-80
2021/07/04 10:13:46;;;;;;;5.60;4.18;;;768.60;998.40;;;;;;4981844;28;20114;-79
2021/07/04 10:16:14;;;;;;;7.35;4.13;;;768.50;998.40;;;;;;4963044;28;20154;-78
2021/07/04 10:18:42;;;;;;;7.82;4.20;;;768.60;1024.00;;;;;;4972811;28;20053;-80
2021/07/04 10:21:09;;;;;;;6.22;4.22;;;768.60;998.40;;;;;;4965993;28;20069;-78
2021/07/04 10:23:35;;;;;;;7.05;4.63;;;768.90;998.40;;;;;;4965415;28;20063;-77
2021/07/04 10:26:02;;;;;;;12.02;4.93;;;768.90;998.40;;;;;;4973500;28;20069;-89
2021/07/04 10:28:30;;;;;;;5.30;4.43;;;768.90;998.40;;;;;;4964070;28;20043;-75
2021/07/04 10:30:58;;;;;;;7.70;4.50;;;768.80;972.80;;;;;;4976832;28;20428;-91
2021/07/04 10:33:32;;;;;;;6.22;4.90;;;793.70;998.40;;;;;;4979383;28;20216;-75
2021/07/04 10:35:58;;;;;;;3.88;3.30;;;793.60;1024.00;;;;;;4984598;28;20050;-89
2021/07/04 10:38:24;;;;;;;5.93;3.85;;;768.90;947.20;;;;;;4979632;28;20054;-76
2021/07/04 10:41:03;;;;;;;4.28;3.42;;;793.70;947.20;;;;;;4978028;28;20492;-77
2021/07/04 10:43:52;;;;;;;7.18;4.18;;;794.00;972.80;;;;;;4983195;28;20034;-76
2021/07/04 10:46:19;;;;;;;5.00;4.13;;;794.20;921.60;;;;;;4983097;28;20026;-77
2021/07/04 10:48:58;;;;;;;5.38;4.50;;;794.30;896.00;;;;;;4982248;28;20551;-77
2021/07/04 10:51:24;;;;;;;7.75;4.28;;;794.30;921.60;;;;;;4980881;28;20066;-81
2021/07/04 10:53:58;;;;;;;5.72;3.65;;;819.20;921.60;;;;;;4967831;28;20061;-75
2021/07/04 10:56:44;;;;;;;6.22;4.30;;;819.30;896.00;;;;;;4975867;28;20035;-76
2021/07/04 10:59:10;;;;;;;;;;;819.30;870.40;;;;;;4984983;28;20034;-81
2021/07/04 11:02:00;;;;;;;4.60;3.70;;;819.30;870.40;;;;;;4979052;28;19906;-77
2021/07/04 11:04:32;;;;;;;8.02;4.22;;;794.50;870.40;;;;;;4989796;28;20034;-78
2021/07/04 11:06:59;;;;;;;5.22;4.10;;;794.00;896.00;;;;;;4980920;28;20491;-76
2021/07/04 11:09:51;;;;;;;4.78;3.47;;;794.00;896.00;;;;;;4981200;28;20041;-76
2021/07/04 11:12:29;;;;;;;7.72;3.67;;;794.40;896.00;;;;;;4980785;28;20059;-76
2021/07/04 11:15:13;;;;;;;6.25;4.05;;;819.30;896.00;;;;;;4981209;28;20094;-78
2021/07/04 11:17:57;;;;;;;6.72;3.85;;;819.40;896.00;;;;;;4981359;28;20074;-87
2021/07/04 11:20:42;;;;;;;7.10;4.00;;;819.50;870.40;;;;;;4967115;28;20037;-90
2021/07/04 11:23:22;;;;;;;6.80;4.38;;;819.70;896.00;;;;;;4981239;28;20047;-76
2021/07/04 11:25:55;;;;;;;5.43;4.43;;;819.80;870.40;;;;;;4984657;28;20029;-79
2021/07/04 11:28:22;;;;;;;4.63;3.83;;;819.70;870.40;;;;;;4983937;28;20376;-84
2021/07/04 11:31:17;;;;;;;8.38;3.80;;;819.20;896.00;;;;;;4968370;28;20027;-79
2021/07/04 11:33:50;;;;;;;7.35;3.97;;;794.50;896.00;;;;;;4984708;28;20042;-82
2021/07/04 11:36:20;;;;;;;5.75;4.35;;;819.30;870.40;;;;;;4974358;28;20042;-86
2021/07/04 11:38:47;;;;;;;5.53;3.47;;;819.30;921.60;;;;;;4970661;28;20042;-87
2021/07/04 11:41:21;;;;;;;7.13;3.95;;;794.40;896.00;;;;;;4984338;28;20041;-84
2021/07/04 11:43:47;;;;;;;6.13;3.83;;;794.20;896.00;;;;;;4986507;28;20047;-81
2021/07/04 11:46:18;;;;;;;7.65;4.35;;;819.60;896.00;;;;;;4976976;28;20033;-80
2021/07/04 11:48:47;;;;;;;5.22;3.50;;;819.90;870.40;;;;;;4985556;28;20034;-81
2021/07/04 11:51:23;;;;;;;5.13;3.03;;;819.90;844.80;;;;;;4974871;28;20042;-78
2021/07/04 11:53:51;;;;;;;5.80;3.30;;;820.00;844.80;;;;;;4968595;28;20027;-80
2021/07/04 11:56:17;;;;;;;4.93;3.53;;;845.20;844.80;;;;;;4966470;28;20058;-80
2021/07/04 11:58:43;;;;;;;6.07;3.88;;;820.10;844.80;;;;;;4987033;28;20039;-82
2021/07/04 12:01:20;;;;;;;7.50;4.30;;;845.00;870.40;;;;;;4987672;28;20102;-84
2021/07/04 12:03:56;;;;;;;8.07;5.50;;;845.40;870.40;;;;;;4985470;28;20069;-87
2021/07/04 12:06:25;;;;;;;6.82;4.60;;;845.40;844.80;;;;;;4966799;28;20026;-80
2021/07/04 12:08:56;;;;;;;11.25;7.40;;;845.10;870.40;;;;;;4986023;28;20051;-78
2021/07/04 12:11:40;;;;;;;7.75;5.47;;;845.30;870.40;;;;;;4984001;28;20030;-81
2021/07/04 12:14:27;;;;;;;5.30;3.88;;;845.10;870.40;;;;;;4985186;28;20492;-90
2021/07/04 12:16:55;;;;;;;4.03;3.60;;;844.80;896.00;;;;;;4963167;28;20401;-82
2021/07/04 12:19:29;;;;;;;6.85;4.25;;;820.10;870.40;;;;;;4986181;28;20026;-87